Current Weather

Michigan City Muni-Phillips Fld

Michigan City, Indiana (KMGC)

Report from: Wednesday, September 28, 2022 6:15 AM EDT
Current time: Wednesday, September 28, 2022 6:39 AM EDT

Nearby weather
Weather history
Weather forecast

Present weatherLight rain
Temperature8.0°C (46.4°F)
Dew point7.0°C (44.6°F)
Winds Calm
Visibility10 mi. (16.1 km)
Clouds Scattered clouds 2,700 ft. (823 m)
Ceiling: Broken clouds 3,300 ft. (1,006 m)
Overcast 3,900 ft. (1,189 m)
Altimeter30.33 in.Hg (1027 mB)
Relative humidity93 %
Density altitude-1,165 ft. (-355 m)
Remarks Fully automated report
Automated weather observing station with precipitation discriminator
Flight conditions Visual Meteorological Conditions
Raw dataKMGC 281015Z AUTO 00000KT 10SM -RA SCT027 BKN033 OVC039 08/07 A3033 RMK AO2
An error has occurred. This application may no longer respond until reloaded. Reload 🗙